Latest Weather Observations for Merriwa

IDN60801

Issued at 1:03 pm EST Monday 25 May 2015 (issued every 30 minutes, with the page automatically refreshed every 10 minutes)

About weather observations | Map of weather stations | Latest weather observations for NSW | Other Formats
Station Details ID: 061287 Name: MERRIWA (ROSCOMMON) Lat: -32.19 Lon: 150.17 Height: 375.0 m
Data from the previous 72 hours. | See also: Recent months at Merriwa
Date/Time
EST
Temp
°C
App
Temp
°C
Dew
Point
Rel
Hum
%
Delta-T
°C
Wind Press
QNH
hPa
Press
MSL
hPa
Rain
since 9 am
mm
Dir
 
Spd
km/h
Gust
km/h
Spd
kts
Gust
kts
25/01:00pm 16.5 14.6 9.2 62 3.8 W 9 13 5 7 1030.5 1030.7 0.0
25/12:30pm 15.6 14.2 9.5 67 3.2 W 7 11 4 6 1030.7 1030.9 0.0
25/12:00pm 14.2 12.5 10.0 76 2.2 WSW 9 13 5 7 1031.4 1031.5 0.0
25/11:30am 13.4 12.6 9.6 78 2.0 S 4 9 2 5 1031.7 1031.8 0.0
25/11:00am 12.2 12.0 9.2 82 1.5 CALM 0 6 0 3 1031.9 1032.0 0.0
25/10:30am 12.1 10.6 8.6 79 1.8 S 6 9 3 5 1032.6 1032.8 0.0
25/10:00am 11.8 10.9 9.2 84 1.3 SW 4 9 2 5 1032.8 1033.0 0.0
25/09:30am 11.1 11.2 10.0 93 0.6 CALM 0 7 0 4 1032.8 1033.0 0.0
25/09:00am 8.9 7.3 8.8 99 0.0 WNW 7 9 4 5 1033.0 1033.2 0.2
25/08:30am 7.0 5.1 6.9 99 0.0 WNW 6 9 3 5 1032.9 1033.1 0.2
25/08:00am 5.0 3.9 4.9 99 0.0 CALM 0 0 0 0 1032.5 1032.7 0.2
25/07:30am 3.2 1.7 3.1 99 0.0 CALM 0 0 0 0 1032.2 1032.3 0.2
25/07:00am 2.7 0.7 2.4 98 0.1 WSW 2 7 1 4 1032.1 1032.2 0.2
25/06:30am 2.9 1.0 2.8 99 0.0 WSW 2 7 1 4 1032.1 1032.2 0.2
25/06:00am 3.4 2.0 3.3 99 0.0 CALM 0 0 0 0 1031.6 1031.7 0.2
25/05:30am 3.8 2.4 3.7 99 0.0 CALM 0 0 0 0 1031.5 1031.6 0.2
25/05:00am 3.7 2.3 3.4 98 0.1 CALM 0 0 0 0 1031.2 1031.4 0.2
25/04:30am 3.2 1.7 2.9 98 0.1 CALM 0 0 0 0 1031.1 1031.3 0.2
25/04:00am 3.1 1.6 2.8 98 0.1 CALM 0 0 0 0 1031.1 1031.3 0.2
25/03:30am 3.5 2.0 3.2 98 0.1 CALM 0 0 0 0 1031.6 1031.7 0.2
25/03:00am 3.7 0.6 3.4 98 0.1 WSW 9 9 5 5 1032.0 1032.1 0.2
25/02:30am 4.6 3.3 4.3 98 0.1 CALM 0 0 0 0 1031.7 1031.8 0.2
25/02:00am 4.5 3.2 4.2 98 0.1 CALM 0 0 0 0 1032.0 1032.1 0.2
25/01:30am 4.3 3.0 4.0 98 0.1 CALM 0 0 0 0 1032.1 1032.2 0.2
25/01:00am 4.3 3.0 4.0 98 0.1 CALM 0 0 0 0 1032.0 1032.1 0.2
25/12:30am 4.0 2.6 3.7 98 0.1 CALM 0 0 0 0 1032.1 1032.2 0.2
25/12:00am 3.8 1.6 3.2 96 0.2 NNW 4 6 2 3 1032.4 1032.5 0.2
 
Date/Time
EST
Temp
°C
App
Temp
°C
Dew
Point
Rel
Hum
%
Delta-T
°C
Wind Press
QNH
hPa
Press
MSL
hPa
Rain
since 9 am
mm
Dir
 
Spd
km/h
Gust
km/h
Spd
kts
Gust
kts
24/11:30pm 5.3 4.2 5.0 98 0.1 CALM 0 0 0 0 1032.6 1032.8 0.2
24/11:00pm 5.0 2.5 4.7 98 0.1 NNW 7 7 4 4 1032.5 1032.7 0.2
24/10:30pm 6.1 5.1 5.8 98 0.1 CALM 0 0 0 0 1032.4 1032.5 0.2
24/10:00pm 5.9 4.1 5.6 98 0.1 ESE 4 6 2 3 1032.5 1032.7 0.2
24/09:30pm 5.4 4.1 4.2 92 0.5 CALM 0 0 0 0 1032.3 1032.4 0.2
24/09:00pm 7.3 5.9 5.6 89 0.8 ESE 2 9 1 5 1032.3 1032.4 0.2
24/08:30pm 7.3 6.5 6.4 94 0.4 CALM 0 0 0 0 1032.4 1032.5 0.2
24/08:00pm 7.9 7.1 6.5 91 0.7 CALM 0 0 0 0 1032.3 1032.4 0.2
24/07:30pm 8.1 7.3 6.6 90 0.7 CALM 0 0 0 0 1032.2 1032.3 0.2
24/07:00pm 8.3 7.5 6.6 89 0.8 CALM 0 0 0 0 1031.9 1032.0 0.2
24/06:30pm 8.9 8.0 6.2 83 1.3 CALM 0 0 0 0 1031.7 1031.8 0.2
24/06:00pm 10.1 8.0 6.6 79 1.7 ESE 7 7 4 4 1031.2 1031.4 0.2
24/05:30pm 10.9 8.8 6.6 75 2.1 ESE 7 9 4 5 1030.9 1031.1 0.2
24/05:00pm 11.9 9.4 6.4 69 2.6 ESE 9 9 5 5 1030.8 1031.0 0.2
24/04:30pm 13.6 11.5 6.7 63 3.4 SE 7 9 4 5 1030.7 1030.9 0.2
24/04:00pm 14.9 13.0 6.5 57 4.1 E 6 9 3 5 1030.8 1031.0 0.2
24/03:30pm 16.0 13.9 6.7 54 4.7 ENE 7 11 4 6 1030.6 1030.8 0.2
24/03:00pm 15.8 13.1 5.7 51 4.9 ESE 9 13 5 7 1030.6 1030.8 0.2
24/02:30pm 15.5 12.4 5.4 51 4.9 ESE 11 15 6 8 1030.6 1030.8 0.2
24/02:00pm 15.5 12.9 6.0 53 4.6 SSE 9 17 5 9 1030.6 1030.8 0.2
24/01:30pm 15.6 12.8 6.9 56 4.4 ESE 11 19 6 10 1031.0 1031.2 0.2
24/01:00pm 15.1 12.7 6.9 58 4.1 E 9 15 5 8 1031.2 1031.4 0.2
24/12:30pm 14.9 12.7 7.7 62 3.6 ESE 9 15 5 8 1031.4 1031.5 0.2
24/12:00pm 14.0 12.1 7.5 65 3.2 SE 7 13 4 7 1031.8 1031.9 0.2
24/11:30am 13.4 12.0 9.5 77 2.0 ESE 7 11 4 6 1032.2 1032.3 0.2
24/11:00am 12.4 11.2 9.4 82 1.5 S 6 9 3 5 1032.7 1032.9 0.2
24/10:30am 11.4 10.9 9.3 87 1.1 WNW 2 7 1 4 1033.0 1033.2 0.2
24/10:00am 9.4 7.9 9.1 98 0.1 WSW 7 11 4 6 1033.0 1033.2 0.2
24/09:30am 8.2 6.4 8.1 99 0.0 WSW 7 11 4 6 1033.1 1033.3 0.0
24/09:16am 7.9 5.7 7.8 99 0.0 WSW 9 11 5 6 1033.0 1033.2 0.0
24/09:00am 7.0 4.6 6.9 99 0.0 WSW 9 11 5 6 1033.0 1033.2 0.0
24/08:57am 6.8 4.3 6.7 99 0.0 WSW 9 11 5 6 1033.0 1033.2 0.0
24/08:30am 6.3 5.4 6.2 99 0.0 CALM 0 0 0 0 1032.6 1032.8 0.0
24/08:00am 4.0 1.5 3.7 98 0.1 W 6 7 3 4 1032.4 1032.5 0.0
24/07:49am 3.2 0.5 2.9 98 0.1 W 6 7 3 4 1032.3 1032.4 0.0
24/07:30am 2.3 -0.5 2.0 98 0.1 W 6 6 3 3 1032.1 1032.2 0.0
24/07:16am 1.5 -0.7 1.2 98 0.1 W 2 6 1 3 1032.0 1032.1 0.0
24/07:00am 1.5 -0.3 1.2 98 0.1 CALM 0 0 0 0 1031.8 1031.9 0.0
24/06:30am 1.4 -0.4 1.1 98 0.1 CALM 0 0 0 0 1031.4 1031.5 0.0
24/06:27am 1.4 -0.4 1.1 98 0.1 CALM 0 0 0 0 1031.2 1031.4 0.0
24/06:00am 1.3 -0.5 1.0 98 0.1 CALM 0 0 0 0 1031.2 1031.4 0.0
24/05:45am 1.7 -0.1 1.4 98 0.1 CALM 0 0 0 0 1031.0 1031.2 0.0
24/05:30am 2.0 0.3 1.7 98 0.1 CALM 0 0 0 0 1030.8 1031.0 0.0
24/05:00am 1.7 -0.1 1.4 98 0.1 CALM 0 0 0 0 1030.6 1030.8 0.0
24/04:30am 2.0 0.3 1.7 98 0.1 CALM 0 0 0 0 1030.5 1030.7 0.0
24/04:00am 3.7 2.3 3.4 98 0.1 CALM 0 6 0 3 1030.3 1030.5 0.0
24/03:30am 2.9 0.0 2.6 98 0.1 W 7 9 4 5 1030.2 1030.4 0.0
24/03:00am 4.5 1.9 4.2 98 0.1 W 7 11 4 6 1030.0 1030.1 0.0
24/02:30am 5.3 2.5 5.0 98 0.1 W 9 11 5 6 1029.8 1029.9 0.0
24/02:00am 4.2 1.7 3.9 98 0.1 ENE 6 7 3 4 1029.6 1029.7 0.0
24/01:30am 4.2 1.7 3.9 98 0.1 ENE 6 7 3 4 1029.6 1029.7 0.0
24/01:00am 5.2 4.1 4.9 98 0.1 CALM 0 0 0 0 1029.7 1029.8 0.0
24/12:30am 4.3 3.0 4.0 98 0.1 CALM 0 0 0 0 1029.8 1029.9 0.0
24/12:00am 4.7 3.5 4.4 98 0.1 CALM 0 0 0 0 1029.7 1029.8 0.0
 
Date/Time
EST
Temp
°C
App
Temp
°C
Dew
Point
Rel
Hum
%
Delta-T
°C
Wind Press
QNH
hPa
Press
MSL
hPa
Rain
since 9 am
mm
Dir
 
Spd
km/h
Gust
km/h
Spd
kts
Gust
kts
23/11:30pm 6.2 5.3 5.9 98 0.1 CALM 0 0 0 0 1029.8 1029.9 0.0
23/11:00pm 6.4 5.5 6.1 98 0.1 CALM 0 0 0 0 1029.7 1029.8 0.0
23/10:30pm 6.5 5.6 6.2 98 0.1 CALM 0 0 0 0 1029.6 1029.7 0.0
23/10:00pm 6.3 5.4 5.9 97 0.2 CALM 0 0 0 0 1029.6 1029.7 0.0
23/09:30pm 7.5 6.1 7.2 98 0.1 ENE 4 6 2 3 1029.8 1029.9 0.0
23/09:00pm 7.9 6.2 7.5 97 0.2 ENE 6 6 3 3 1029.8 1029.9 0.0
23/08:30pm 7.7 5.8 6.6 93 0.5 ENE 6 6 3 3 1029.8 1029.9 0.0
23/08:00pm 8.8 7.1 7.6 92 0.6 ENE 6 7 3 4 1029.5 1029.6 0.0
23/07:30pm 9.0 7.0 7.0 87 1.0 ENE 7 9 4 5 1029.4 1029.5 0.0
23/07:00pm 9.8 7.9 7.4 85 1.2 ENE 7 11 4 6 1029.1 1029.2 0.0
23/06:30pm 10.7 8.4 7.4 80 1.6 ENE 9 11 5 6 1028.9 1029.0 0.0
23/06:00pm 11.2 9.3 7.7 79 1.7 ENE 7 9 4 5 1028.8 1028.9 0.0
23/05:30pm 11.7 10.0 7.6 76 2.0 ENE 6 7 3 4 1028.7 1028.8 0.0
23/05:00pm 13.5 11.6 7.7 68 2.9 ENE 7 11 4 6 1028.4 1028.6 0.0
23/04:30pm 15.0 12.5 8.0 63 3.6 E 11 13 6 7 1028.2 1028.4 0.0
23/04:00pm 15.8 12.4 7.6 58 4.1 E 15 22 8 12 1028.1 1028.3 0.0
23/03:30pm 15.7 12.8 8.0 60 3.9 ESE 13 20 7 11 1028.0 1028.2 0.0
23/03:00pm 16.8 13.3 7.2 53 4.8 ESE 15 20 8 11 1027.8 1027.9 0.0
23/02:30pm 16.1 12.9 6.8 54 4.7 SE 13 20 7 11 1027.8 1027.9 0.0
23/02:00pm 16.3 13.0 8.0 58 4.2 SE 15 20 8 11 1027.9 1028.0 0.0
23/01:30pm 16.4 13.0 7.6 56 4.5 E 15 24 8 13 1027.9 1028.0 0.0
23/01:00pm 16.6 13.0 8.3 58 4.3 E 17 24 9 13 1028.1 1028.3 0.0
23/12:30pm 15.8 13.3 8.3 61 3.9 ESE 11 19 6 10 1028.2 1028.4 0.0
23/12:00pm 15.2 12.3 8.2 63 3.6 ESE 13 20 7 11 1028.7 1028.8 0.0
23/11:30am 14.4 11.8 7.9 65 3.3 SE 11 17 6 9 1029.2 1029.3 0.0
23/11:00am 14.2 12.4 9.4 73 2.5 SSE 9 13 5 7 1029.4 1029.5 0.0
23/10:30am 14.5 13.8 10.1 75 2.3 NNW 4 7 2 4 1029.6 1029.7 0.0
23/10:00am 12.6 11.3 9.2 80 1.7 ENE 6 11 3 6 1029.7 1029.8 0.0
23/09:30am 12.1 10.8 9.8 86 1.2 NE 7 9 4 5 1029.5 1029.6 0.0
23/09:00am 11.6 10.2 9.5 87 1.1 ENE 7 11 4 6 1029.3 1029.4 0.4
23/08:30am 11.2 9.8 9.6 90 0.8 NE 7 9 4 5 1028.9 1029.0 0.4
23/08:00am 10.7 9.6 9.8 94 0.5 E 6 9 3 5 1028.4 1028.6 0.4
23/07:30am 10.1 8.8 9.8 98 0.2 E 7 9 4 5 1028.1 1028.3 0.4
23/07:00am 9.5 8.0 9.2 98 0.2 E 7 9 4 5 1027.7 1027.8 0.4
23/06:30am 8.1 7.2 7.8 98 0.1 E 2 7 1 4 1027.4 1027.5 0.4
23/06:00am 8.0 6.1 7.6 97 0.2 E 7 9 4 5 1026.8 1026.9 0.4
23/05:30am 8.9 7.2 8.3 96 0.3 E 7 9 4 5 1026.4 1026.5 0.4
23/05:00am 8.9 7.1 7.8 93 0.5 E 7 9 4 5 1026.3 1026.4 0.4
23/04:30am 9.5 7.9 8.7 95 0.4 ESE 7 9 4 5 1026.1 1026.2 0.4
23/04:00am 9.9 8.3 8.8 93 0.5 S 7 9 4 5 1025.9 1026.0 0.4
23/03:30am 9.6 9.2 8.4 92 0.6 CALM 0 0 0 0 1026.0 1026.1 0.4
23/03:00am 9.8 8.3 8.6 92 0.6 ESE 6 7 3 4 1026.2 1026.3 0.4
23/02:30am 9.8 9.6 8.9 94 0.5 CALM 0 0 0 0 1026.4 1026.5 0.4
23/02:00am 9.8 9.5 8.7 93 0.5 CALM 0 0 0 0 1026.4 1026.5 0.4
23/01:30am 9.8 9.1 8.6 92 0.6 NE 2 7 1 4 1026.7 1026.8 0.4
23/01:00am 9.6 9.0 8.8 95 0.4 ESE 2 7 1 4 1026.8 1026.9 0.4
23/12:30am 9.2 8.3 7.6 90 0.8 ESE 2 7 1 4 1026.7 1026.8 0.4
23/12:00am 10.4 9.2 8.2 86 1.1 ESE 4 7 2 4 1026.6 1026.7 0.4
 
Date/Time
EST
Temp
°C
App
Temp
°C
Dew
Point
Rel
Hum
%
Delta-T
°C
Wind Press
QNH
hPa
Press
MSL
hPa
Rain
since 9 am
mm
Dir
 
Spd
km/h
Gust
km/h
Spd
kts
Gust
kts
22/11:30pm 10.8 8.3 8.4 85 1.2 ESE 11 15 6 8 1026.8 1026.9 0.4
22/11:00pm 10.7 9.1 8.8 88 1.0 ENE 7 11 4 6 1026.6 1026.7 0.4
22/10:30pm 10.4 9.0 8.8 90 0.8 ENE 6 9 3 5 1026.5 1026.6 0.4
22/10:00pm 10.1 8.6 8.4 89 0.8 NE 6 9 3 5 1026.5 1026.6 0.4
22/09:30pm 10.7 9.2 8.3 85 1.2 ENE 6 9 3 5 1026.2 1026.3 0.4
22/09:00pm 11.4 9.3 8.4 82 1.5 E 9 13 5 7 1026.0 1026.1 0.4
22/08:30pm 11.4 8.6 8.4 82 1.5 ESE 13 19 7 10 1025.8 1025.9 0.4
22/08:00pm 11.0 9.4 8.2 83 1.4 ESE 6 9 3 5 1025.4 1025.5 0.4
22/07:30pm 10.6 9.9 8.4 86 1.1 ESE 2 9 1 5 1025.0 1025.1 0.4
22/07:00pm 10.4 8.6 8.0 85 1.2 ESE 7 9 4 5 1024.7 1024.8 0.4
22/06:30pm 10.6 8.3 7.5 81 1.5 S 9 13 5 7 1024.0 1024.1 0.4
22/06:00pm 10.9 8.4 8.3 84 1.3 S 11 15 6 8 1023.5 1023.6 0.4
22/05:30pm 11.3 9.4 7.6 78 1.8 S 7 11 4 6 1023.0 1023.0 0.4
22/05:00pm 12.0 9.6 8.7 80 1.7 SSE 11 15 6 8 1022.5 1022.6 0.4
22/04:30pm 12.6 8.9 9.6 82 1.6 S 19 24 10 13 1022.2 1022.3 0.4
22/04:00pm 12.2 9.9 11.6 96 0.3 SSW 15 22 8 12 1021.9 1022.0 0.4
22/03:30pm 14.0 12.1 10.6 80 1.8 SSE 11 15 6 8 1021.2 1021.3 0.2
22/03:00pm 14.9 12.9 10.3 74 2.4 SSE 11 15 6 8 1020.6 1020.6 0.2
22/02:30pm 14.7 13.1 10.3 75 2.3 S 9 13 5 7 1020.3 1020.3 0.2
22/02:00pm 14.3 12.3 10.1 76 2.2 SSE 11 17 6 9 1019.8 1019.9 0.2
22/01:30pm 14.5 13.0 10.5 77 2.1 S 9 13 5 7 1019.7 1019.8 0.2

Other Formats:

Comma delimited format used in spreadsheet applications
http://www.bom.gov.au/fwo/IDN60801/IDN60801.95754.axf

JavaScript Object Notation format (JSON) in row-major order
http://www.bom.gov.au/fwo/IDN60801/IDN60801.95754.json